EW8967 Weather Reports


Display with metric or nautical units.
time (UTC)temp
F
wind
direction
speed
MPH
gust
MPH
rain 1hr
in
rain 24hr
in
rain mn
in
humidity
%
barometer
mb
20190424035828 68 126 2.0 8.0 0.00 0.00 0.00 35 1014.0
20190424035328 68 123 2.0 5.0 0.00 0.00 0.00 36 1014.0
20190424034829 69 127 2.0 5.0 0.00 0.00 0.00 36 1014.0
20190424034328 69 130 2.0 5.0 0.00 0.00 0.00 36 1014.0
20190424033829 69 129 2.0 7.0 0.00 0.00 0.00 35 1013.9
20190424033329 69 72 2.0 7.0 0.00 0.00 0.00 35 1013.9
20190424032829 69 117 3.0 8.0 0.00 0.00 0.00 35 1013.8
20190424032329 69 95 3.0 8.0 0.00 0.00 0.00 35 1013.8
20190424031828 69 120 3.0 10.0 0.00 0.00 0.00 35 1013.8
20190424031328 69 121 4.0 10.0 0.00 0.00 0.00 35 1013.8
20190424030829 69 113 3.0 8.0 0.00 0.00 0.00 35 1013.9
20190424030326 70 107 3.0 8.0 0.00 0.00 0.00 35 1013.9
20190424025827 70 100 3.0 8.0 0.00 0.00 0.00 35 1013.9
20190424025328 71 100 3.0 6.0 0.00 0.00 0.00 34 1013.8
20190424024826 71 120 2.0 6.0 0.00 0.00 0.00 33 1013.7
20190424024327 71 115 1.0 5.0 0.00 0.00 0.00 31 1013.7
20190424023827 71 115 1.0 5.0 0.00 0.00 0.00 30 1013.5
20190424023326 71 124 1.0 5.0 0.00 0.00 0.00 31 1013.4
20190424022826 71 125 1.0 5.0 0.00 0.00 0.00 31 1013.5
20190424022326 71 65 1.0 4.0 0.00 0.00 0.00 30 1013.5
20190424021826 71 64 1.0 4.0 0.00 0.00 0.00 30 1013.5
20190424021326 72 64 1.0 4.0 0.00 0.00 0.00 30 1013.5
20190424020827 72 65 2.0 5.0 0.00 0.00 0.00 30 1013.5
20190424020326 72 65 1.0 5.0 0.00 0.00 0.00 29 1013.5
20190424015825 72 76 1.0 5.0 0.00 0.00 0.00 29 1013.5
20190424015324 72 0 2.0 5.0 0.00 0.00 0.00 29 1013.4
20190424014825 72 0 3.0 9.0 0.00 0.00 0.00 29 1013.2
20190424014325 72 0 5.0 9.0 0.00 0.00 0.00 29 1013.2
20190424013823 72 0 5.0 9.0 0.00 0.00 0.00 29 1013.1
20190424013322 72 0 5.0 10.0 0.00 0.00 0.00 29 1013.1
20190424012822 72 355 5.0 10.0 0.00 0.00 0.00 30 1013.2
20190424012322 72 0 5.0 9.0 0.00 0.00 0.00 30 1013.4
20190424011822 72 0 6.0 10.0 0.00 0.00 0.00 31 1013.4
20190424011322 72 0 8.0 13.0 0.00 0.00 0.00 31 1013.5
20190424010822 72 0 8.0 15.0 0.00 0.00 0.00 31 1013.4
20190424010321 73 0 7.0 15.0 0.00 0.00 0.00 30 1013.5
20190424005821 73 355 7.0 18.0 0.00 0.00 0.00 30 1013.4
20190424005320 73 13 8.0 18.0 0.00 0.00 0.00 30 1013.4
20190424004819 73 355 9.0 16.0 0.00 0.00 0.00 29 1013.4
20190424004318 73 346 7.0 15.0 0.00 0.00 0.00 29 1013.4
20190424003818 74 341 4.0 12.0 0.00 0.00 0.00 27 1013.5
20190424003318 75 22 2.0 6.0 0.00 0.00 0.00 25 1013.4
20190424002818 75 325 2.0 6.0 0.00 0.00 0.00 25 1013.2
20190424002318 75 253 1.0 4.0 0.00 0.00 0.00 25 1013.2
20190424001817 76 253 1.0 4.0 0.00 0.00 0.00 24 1013.1
20190424001318 76 253 1.0 2.0 0.00 0.00 0.00 25 1013.0
20190424000817 76 253 1.0 5.0 0.00 0.00 0.00 26 1012.9
20190424000318 77 253 3.0 8.0 0.00 0.00 0.00 24 1013.0
20190423235818 77 209 3.0 8.0 0.00 0.00 0.00 25 1013.0
20190423235318 77 196 4.0 8.0 0.00 0.00 0.00 25 1012.9
20190423234818 76 0 6.0 9.0 0.00 0.00 0.00 26 1012.8
20190423234318 76 0 5.0 13.0 0.00 0.00 0.00 26 1012.7
20190423233816 76 0 3.0 13.0 0.00 0.00 0.00 26 1012.7
20190423233314 75 183 2.0 7.0 0.00 0.00 0.00 27 1012.7
20190423232815 74 188 2.0 6.0 0.00 0.00 0.00 26 1012.8
20190423232315 74 191 3.0 6.0 0.00 0.00 0.00 26 1012.9
20190423231814 74 130 2.0 6.0 0.00 0.00 0.00 26 1013.0
20190423231314 74 92 3.0 6.0 0.00 0.00 0.00 27 1013.2
20190423230812 74 74 4.0 8.0 0.00 0.00 0.00 27 1013.2
20190423230312 74 122 4.0 9.0 0.00 0.00 0.00 26 1013.2
20190423225812 74 132 4.0 9.0 0.00 0.00 0.00 26 1013.1
20190423225310 74 134 4.0 9.0 0.00 0.00 0.00 26 1013.0
20190423224810 74 55 4.0 9.0 0.00 0.00 0.00 26 1013.0
20190423224310 74 67 4.0 9.0 0.00 0.00 0.00 27 1012.9
20190423223809 74 38 5.0 9.0 0.00 0.00 0.00 27 1012.8
20190423223310 74 47 5.0 9.0 0.00 0.00 0.00 28 1012.8
20190423222808 74 51 6.0 12.0 0.00 0.00 0.00 28 1012.8
20190423222308 75 24 7.0 12.0 0.00 0.00 0.00 27 1012.8
20190423221808 76 33 7.0 13.0 0.00 0.00 0.00 27 1012.8
20190423221308 76 355 8.0 18.0 0.00 0.00 0.00 27 1012.7
20190423220808 76 355 10.0 21.0 0.00 0.00 0.00 27 1012.6
20190423220307 76 35 12.0 22.0 0.00 0.00 0.00 26 1012.5
20190423215808 76 336 11.0 22.0 0.00 0.00 0.00 25 1012.4
20190423215307 77 26 10.0 20.0 0.00 0.00 0.00 24 1012.2
20190423214808 78 355 10.0 19.0 0.00 0.00 0.00 23 1012.1
20190423214308 78 321 11.0 19.0 0.00 0.00 0.00 23 1012.0
20190423213808 78 355 11.0 18.0 0.00 0.00 0.00 22 1012.0
20190423213308 79 9 10.0 18.0 0.00 0.00 0.00 22 1011.9
20190423212807 80 331 8.0 18.0 0.00 0.00 0.00 19 1011.9
20190423212308 81 24 6.0 15.0 0.00 0.00 0.00 19 1012.0
20190423211807 81 339 3.0 10.0 0.00 0.00 0.00 19 1012.1
20190423211308 81 67 2.0 6.0 0.00 0.00 0.00 17 1011.9
20190423210807 81 23 2.0 6.0 0.00 0.00 0.00 17 1011.7
20190423210308 80 67 3.0 6.0 0.00 0.00 0.00 16 1011.7
20190423205808 80 68 2.0 6.0 0.00 0.00 0.00 17 1011.7
20190423205307 80 0 1.0 6.0 0.00 0.00 0.00 21 1011.7
20190423204808 79 0 1.0 4.0 0.00 0.00 0.00 20 1011.7
20190423204307 78 0 1.0 4.0 0.00 0.00 0.00 22 1011.9
20190423203808 78 74 1.0 5.0 0.00 0.00 0.00 21 1012.0
20190423203307 78 75 1.0 5.0 0.00 0.00 0.00 21 1012.1
20190423202807 78 317 2.0 4.0 0.00 0.00 0.00 20 1012.1
20190423202307 78 311 1.0 4.0 0.00 0.00 0.00 21 1012.2
20190423201808 78 193 1.0 6.0 0.00 0.00 0.00 20 1012.2
20190423201308 78 196 2.0 6.0 0.00 0.00 0.00 22 1012.2
20190423200807 78 175 3.0 6.0 0.00 0.00 0.00 22 1012.2
20190423200307 78 174 2.0 6.0 0.00 0.00 0.00 20 1012.3
20190423195807 78 188 3.0 7.0 0.00 0.00 0.00 22 1012.3
20190423195306 78 196 3.0 7.0 0.00 0.00 0.00 22 1012.4
20190423194805 78 211 2.0 6.0 0.00 0.00 0.00 22 1012.4
20190423194307 78 198 3.0 6.0 0.00 0.00 0.00 23 1012.4
20190423193805 78 182 3.0 11.0 0.00 0.00 0.00 23 1012.5
20190423193305 78 191 4.0 11.0 0.00 0.00 0.00 23 1012.6
20190423192801 78 193 4.0 10.0 0.00 0.00 0.00 23 1012.6
20190423192301 78 180 3.0 9.0 0.00 0.00 0.00 23 1012.6
20190423191802 78 58 4.0 9.0 0.00 0.00 0.00 22 1012.6
20190423191259 78 177 3.0 9.0 0.00 0.00 0.00 22 1012.7
20190423190800 78 316 2.0 6.0 0.00 0.00 0.00 21 1012.7
20190423190300 78 161 2.0 6.0 0.00 0.00 0.00 21 1012.7
20190423185759 78 72 3.0 7.0 0.00 0.00 0.00 21 1012.7
20190423185258 79 68 4.0 8.0 0.00 0.00 0.00 20 1012.8
20190423184757 80 44 3.0 8.0 0.00 0.00 0.00 20 1012.9
20190423184258 80 99 2.0 7.0 0.00 0.00 0.00 20 1012.9
20190423183757 80 182 2.0 5.0 0.00 0.00 0.00 21 1013.0
20190423183258 79 181 2.0 9.0 0.00 0.00 0.00 21 1013.2
20190423182758 79 130 3.0 9.0 0.00 0.00 0.00 21 1013.2
20190423182257 78 0 3.0 11.0 0.00 0.00 0.00 21 1013.2
20190423181758 78 208 4.0 11.0 0.00 0.00 0.00 21 1013.4
20190423181255 78 225 5.0 15.0 0.00 0.00 0.00 22 1013.4
20190423180754 78 187 4.0 15.0 0.00 0.00 0.00 21 1013.5
20190423180254 77 149 3.0 7.0 0.00 0.00 0.00 23 1013.5
20190423175751 77 342 4.0 9.0 0.00 0.00 0.00 22 1013.6
20190423175252 77 65 3.0 9.0 0.00 0.00 0.00 23 1013.6
20190423174751 78 280 3.0 6.0 0.00 0.00 0.00 22 1013.7
20190423174251 78 138 3.0 10.0 0.00 0.00 0.00 22 1013.8
20190423173752 77 87 2.0 10.0 0.00 0.00 0.00 23 1013.8
20190423173251 76 0 2.0 5.0 0.00 0.00 0.00 23 1013.8
20190423172752 76 338 2.0 6.0 0.00 0.00 0.00 22 1013.8
20190423172249 77 324 3.0 7.0 0.00 0.00 0.00 22 1013.9
20190423171749 76 269 3.0 8.0 0.00 0.00 0.00 22 1013.9
20190423171247 76 196 3.0 8.0 0.00 0.00 0.00 23 1013.9
20190423170747 76 197 2.0 8.0 0.00 0.00 0.00 25 1013.9
20190423170248 76 176 3.0 7.0 0.00 0.00 0.00 26 1013.9
20190423165745 75 202 3.0 7.0 0.00 0.00 0.00 26 1013.9
20190423165246 74 198 2.0 7.0 0.00 0.00 0.00 27 1014.0
20190423164745 74 209 2.0 6.0 0.00 0.00 0.00 27 1014.0
20190423164246 73 219 2.0 4.0 0.00 0.00 0.00 29 1014.0
20190423163745 74 232 1.0 4.0 0.00 0.00 0.00 28 1014.0
20190423163245 74 218 1.0 4.0 0.00 0.00 0.00 29 1014.1
20190423162746 73 218 1.0 4.0 0.00 0.00 0.00 29 1014.1
20190423162245 72 218 1.0 4.0 0.00 0.00 0.00 30 1014.1
20190423161744 72 218 1.0 5.0 0.00 0.00 0.00 31 1014.1
20190423161241 72 307 1.0 5.0 0.00 0.00 0.00 32 1014.1
20190423160742 72 217 1.0 4.0 0.00 0.00 0.00 30 1014.1
20190423160241 71 215 1.0 4.0 0.00 0.00 0.00 31 1014.1
20190423155740 71 215 1.0 4.0 0.00 0.00 0.00 31 1014.1
20190423155239 70 216 1.0 5.0 0.00 0.00 0.00 33 1014.2
20190423154740 69 216 1.0 6.0 0.00 0.00 0.00 32 1014.2
20190423154239 69 217 2.0 6.0 0.00 0.00 0.00 33 1014.2
20190423153739 68 217 3.0 6.0 0.00 0.00 0.00 35 1014.2
20190423153239 68 219 3.0 6.0 0.00 0.00 0.00 35 1014.1
20190423152737 67 0 3.0 6.0 0.00 0.00 0.00 35 1014.1
20190423152237 66 196 3.0 6.0 0.00 0.00 0.00 36 1014.0
20190423151737 66 187 4.0 7.0 0.00 0.00 0.00 36 1014.1
20190423151237 66 188 4.0 7.0 0.00 0.00 0.00 35 1014.1
20190423150737 66 184 3.0 7.0 0.00 0.00 0.00 35 1014.1
20190423150237 66 178 2.0 7.0 0.00 0.00 0.00 36 1014.1
20190423145737 66 182 3.0 7.0 0.00 0.00 0.00 36 1014.1
20190423145235 65 178 3.0 7.0 0.00 0.00 0.00 36 1014.2
20190423144735 65 178 4.0 8.0 0.00 0.00 0.00 38 1014.2
20190423144235 64 200 4.0 8.0 0.00 0.00 0.00 37 1014.2
20190423143735 63 0 3.0 7.0 0.00 0.00 0.00 38 1014.1
20190423143235 63 0 3.0 7.0 0.00 0.00 0.00 39 1014.1
20190423142735 62 0 2.0 6.0 0.00 0.00 0.00 40 1014.1
20190423142233 61 178 2.0 6.0 0.00 0.00 0.00 41 1014.2
20190423141733 60 0 2.0 6.0 0.00 0.00 0.00 42 1014.1
20190423141231 59 0 3.0 6.0 0.00 0.00 0.00 43 1014.1
20190423140731 59 0 3.0 6.0 0.00 0.00 0.00 43 1014.1
20190423140231 58 0 2.0 5.0 0.00 0.00 0.00 44 1014.0
20190423135731 58 0 2.0 4.0 0.00 0.00 0.00 44 1013.9
20190423135231 58 159 1.0 4.0 0.00 0.00 0.00 45 1013.9
20190423134731 58 159 1.0 2.0 0.00 0.00 0.00 46 1013.9
20190423134230 58 159 0.0 2.0 0.00 0.00 0.00 47 1013.8
20190423133729 58 159 0.0 1.0 0.00 0.00 0.00 47 1013.7
20190423133227 58 159 0.0 2.0 0.00 0.00 0.00 48 1013.6
20190423132727 58 159 0.0 2.0 0.00 0.00 0.00 47 1013.5
20190423132227 58 159 0.0 2.0 0.00 0.00 0.00 46 1013.4
20190423131727 58 159 0.0 0.0 0.00 0.00 0.00 45 1013.2
20190423131227 58 159 1.0 4.0 0.00 0.00 0.00 45 1013.2
20190423130727 58 159 1.0 4.0 0.00 0.00 0.00 45 1013.1
20190423130227 58 159 1.0 4.0 0.00 0.00 0.00 45 1013.1
20190423125728 58 159 1.0 4.0 0.00 0.00 0.00 45 1013.1
20190423125225 58 188 1.0 4.0 0.00 0.00 0.00 45 1013.1
20190423124725 58 187 1.0 4.0 0.00 0.00 0.00 45 1013.0
20190423124225 58 163 2.0 4.0 0.00 0.00 0.00 45 1012.9
20190423123723 58 163 1.0 4.0 0.00 0.00 0.00 44 1012.9
20190423123223 58 161 0.0 4.0 0.00 0.00 0.00 44 1013.0
20190423122721 59 159 0.0 0.0 0.00 0.00 0.00 44 1013.0
20190423122220 59 159 0.0 2.0 0.00 0.00 0.00 43 1012.9
20190423121721 59 159 0.0 2.0 0.00 0.00 0.00 43 1012.9
20190423121221 59 159 0.0 2.0 0.00 0.00 0.00 43 1012.8
20190423120721 59 159 0.0 1.0 0.00 0.00 0.00 43 1012.8
20190423120221 59 159 1.0 4.0 0.00 0.00 0.00 43 1012.8
20190423115721 59 159 2.0 4.0 0.00 0.00 0.00 43 1012.8
20190423115221 59 159 1.0 5.0 0.00 0.00 0.00 44 1012.8
20190423114721 59 181 1.0 5.0 0.00 0.00 0.00 44 1012.8
20190423114221 59 166 1.0 3.0 0.00 0.00 0.00 44 1012.9
20190423113720 59 167 1.0 4.0 0.00 0.00 0.00 45 1012.9
20190423113221 59 163 1.0 4.0 0.00 0.00 0.00 44 1012.9
20190423112718 59 172 0.0 2.0 0.00 0.00 0.00 44 1012.9
20190423112219 59 171 0.0 0.0 0.00 0.00 0.00 44 1012.9
20190423111719 59 138 0.0 0.0 0.00 0.00 0.00 43 1012.9
20190423111218 59 137 0.0 0.0 0.00 0.00 0.00 43 1012.8
20190423110717 60 137 0.0 0.0 0.00 0.00 0.00 42 1012.9
20190423110217 60 137 0.0 0.0 0.00 0.00 0.00 43 1012.9
20190423105717 60 138 0.0 0.0 0.00 0.00 0.00 42 1012.9
20190423105217 60 140 0.0 0.0 0.00 0.00 0.00 42 1012.9
20190423104716 60 171 0.0 0.0 0.00 0.00 0.00 41 1012.8
20190423104217 60 137 0.0 0.0 0.00 0.00 0.00 41 1012.8
20190423103717 60 137 0.0 0.0 0.00 0.00 0.00 41 1012.8
20190423103221 61 137 1.0 4.0 0.00 0.00 0.00 40 1012.8
20190423102717 61 137 2.0 4.0 0.00 0.00 0.00 40 1012.8
20190423102219 61 137 1.0 4.0 0.00 0.00 0.00 40 1012.9
20190423101717 61 137 0.0 3.0 0.00 0.00 0.00 40 1012.8
20190423101215 61 137 0.0 0.0 0.00 0.00 0.00 40 1012.8
20190423100714 61 137 0.0 0.0 0.00 0.00 0.00 41 1012.9
20190423100215 61 137 0.0 0.0 0.00 0.00 0.00 40 1012.8
20190423095714 61 137 0.0 0.0 0.00 0.00 0.00 40 1012.8
20190423095215 61 137 0.0 0.0 0.00 0.00 0.00 40 1012.8
20190423094713 62 138 0.0 0.0 0.00 0.00 0.00 40 1012.9
20190423094210 62 137 0.0 0.0 0.00 0.00 0.00 40 1012.9
20190423093711 62 137 0.0 0.0 0.00 0.00 0.00 39 1012.9
20190423093211 62 137 0.0 0.0 0.00 0.00 0.00 39 1012.9
20190423092710 62 137 0.0 0.0 0.00 0.00 0.00 39 1012.9
20190423092212 62 137 0.0 0.0 0.00 0.00 0.00 39 1012.9
20190423091211 62 137 0.0 0.0 0.00 0.00 0.00 38 1013.0
20190423090708 62 138 0.0 4.0 0.00 0.00 0.00 38 1013.0
20190423090206 62 137 0.0 4.0 0.00 0.00 0.00 38 1013.0
20190423085705 63 137 1.0 4.0 0.00 0.00 0.00 38 1013.1
20190423085205 62 137 1.0 4.0 0.00 0.00 0.00 38 1013.1
20190423084710 62 178 1.0 4.0 0.00 0.00 0.00 37 1013.2
20190423084204 62 178 0.0 4.0 0.00 0.00 0.00 37 1013.1
20190423083703 63 179 0.0 4.0 0.00 0.00 0.00 37 1013.0
20190423083202 63 179 1.0 4.0 0.00 0.00 0.00 37 1013.1
20190423082703 63 178 1.0 4.0 0.00 0.00 0.00 37 1013.1
20190423082202 63 178 1.0 4.0 0.00 0.00 0.00 38 1013.2
20190423081703 63 178 1.0 2.0 0.00 0.00 0.00 37 1013.2
20190423081202 63 178 1.0 5.0 0.00 0.00 0.00 37 1013.2
20190423080700 63 180 1.0 5.0 0.00 0.00 0.00 37 1013.4
20190423080201 63 180 1.0 2.0 0.00 0.00 0.00 38 1013.5
20190423075700 63 180 1.0 2.0 0.00 0.00 0.00 38 1013.5
20190423075200 64 180 0.0 2.0 0.00 0.00 0.00 38 1013.5
20190423074659 64 180 0.0 2.0 0.00 0.00 0.00 37 1013.6
20190423074158 64 178 1.0 2.0 0.00 0.00 0.00 37 1013.6
20190423073659 64 178 1.0 2.0 0.00 0.00 0.00 37 1013.7
20190423073156 65 178 0.0 2.0 0.00 0.00 0.00 37 1013.6
20190423072656 65 178 0.0 2.0 0.00 0.00 0.00 36 1013.6
20190423072154 65 178 0.0 2.0 0.00 0.00 0.00 36 1013.6
20190423071655 65 178 0.0 0.0 0.00 0.00 0.00 35 1013.6
20190423071154 65 178 0.0 0.0 0.00 0.00 0.00 34 1013.6
20190423070655 66 182 0.0 0.0 0.00 0.00 0.00 34 1013.6
20190423070154 66 179 0.0 4.0 0.00 0.00 0.00 34 1013.6
20190423065654 66 179 1.0 4.0 0.00 0.00 0.00 33 1013.7
20190423065151 66 218 1.0 4.0 0.00 0.00 0.00 33 1013.7
20190423064651 67 179 1.0 4.0 0.00 0.00 0.00 33 1013.7
20190423064151 67 178 1.0 4.0 0.00 0.00 0.00 32 1013.6
20190423063650 67 178 1.0 4.0 0.00 0.00 0.00 32 1013.6
20190423063151 67 246 1.0 4.0 0.00 0.00 0.00 33 1013.6
20190423062653 67 246 1.0 4.0 0.00 0.00 0.00 33 1013.5
20190423061649 67 246 1.0 4.0 0.00 0.00 0.00 33 1013.4
20190423060649 67 246 1.0 2.0 0.00 0.00 0.00 31 1013.2
20190423060149 67 246 1.0 2.0 0.00 0.00 0.00 31 1013.2
20190423055648 67 245 0.0 2.0 0.00 0.00 0.00 31 1013.1
20190423055149 68 245 0.0 1.0 0.00 0.00 0.00 31 1013.2
20190423054649 68 245 0.0 0.0 0.00 0.00 0.00 30 1013.1
20190423054149 68 245 0.0 0.0 0.00 0.00 0.00 30 1013.0
20190423053648 68 245 0.0 2.0 0.00 0.00 0.00 30 1013.0
20190423053149 69 246 1.0 4.0 0.00 0.00 0.00 30 1013.0
20190423052648 69 246 1.0 4.0 0.00 0.00 0.00 30 1012.9
20190423052147 69 244 1.0 4.0 0.00 0.00 0.00 30 1012.9
20190423051645 69 245 2.0 6.0 0.00 0.00 0.00 29 1012.8
20190423051144 69 263 1.0 6.0 0.00 0.00 0.00 29 1012.8
20190423050641 69 219 1.0 4.0 0.00 0.00 0.00 29 1012.8
20190423050140 70 246 2.0 5.0 0.00 0.00 0.00 28 1012.8
20190423045641 70 246 3.0 7.0 0.00 0.00 0.00 28 1012.7
20190423045140 70 245 3.0 7.0 0.00 0.00 0.00 28 1012.6
20190423044641 70 292 3.0 7.0 0.00 0.00 0.00 28 1012.6
20190423044140 70 273 3.0 7.0 0.00 0.00 0.00 28 1012.6
20190423043638 70 265 3.0 7.0 0.00 0.00 0.00 28 1012.5
20190423043139 70 252 3.0 7.0 0.00 0.00 0.00 28 1012.5
20190423042636 70 269 2.0 7.0 0.00 0.00 0.00 28 1012.5
20190423042137 71 266 3.0 7.0 0.00 0.00 0.00 28 1012.5
20190423041636 71 264 3.0 6.0 0.00 0.00 0.00 28 1012.4
20190423041137 71 276 2.0 6.0 0.00 0.00 0.00 28 1012.4
20190423040634 71 274 2.0 6.0 0.00 0.00 0.00 28 1012.3
20190423040138 71 285 3.0 6.0 0.00 0.00 0.00 28 1012.2